createdAt,value
2016-04-05T00:00:53.342Z,89.54
2016-04-05T00:01:53.282Z,89.64
2016-04-05T00:02:53.222Z,89.74
2016-04-05T00:03:53.194Z,90.41
2016-04-05T00:04:53.135Z,90.41
2016-04-05T00:05:53.090Z,90.36
2016-04-05T00:06:53.031Z,90.5
2016-04-05T00:07:52.986Z,90.12
2016-04-05T00:08:52.927Z,89.83
2016-04-05T00:09:52.882Z,89.64
2016-04-05T00:10:52.854Z,89.54
2016-04-05T00:11:52.779Z,89.64
2016-04-05T00:12:52.734Z,89.74
2016-04-05T00:13:52.690Z,90.12
2016-04-05T00:14:52.629Z,90.5
2016-04-05T00:15:52.586Z,90.31
2016-04-05T00:16:52.542Z,90.36
2016-04-05T00:17:52.481Z,90.31
2016-04-05T00:18:52.438Z,90.59
2016-04-05T00:19:52.378Z,90.55
2016-04-05T00:20:52.334Z,91.31
2016-04-05T00:21:52.274Z,91.31
2016-04-05T00:22:52.245Z,90.84
2016-04-05T00:23:52.170Z,91.03
2016-04-05T00:24:52.141Z,91.41
2016-04-05T00:25:52.081Z,90.64
2016-04-05T00:26:52.037Z,90.17
2016-04-05T00:27:51.978Z,89.6
2016-04-05T00:28:51.918Z,89.79
2016-04-05T00:29:51.874Z,89.79
2016-04-05T00:30:51.830Z,90.26
2016-04-05T00:31:51.770Z,91.31
2016-04-05T00:32:51.726Z,91.79
2016-04-05T00:33:51.681Z,91.79
2016-04-05T00:34:51.622Z,90.93
2016-04-05T00:35:51.577Z,91.13
2016-04-05T00:36:51.533Z,90.74
2016-04-05T00:37:51.488Z,91.31
2016-04-05T00:38:51.429Z,91.31
2016-04-05T00:39:51.385Z,91.31
2016-04-05T00:40:51.325Z,90.17
2016-04-05T00:41:51.297Z,90.36
2016-04-05T00:42:51.221Z,91.31
2016-04-05T00:43:51.162Z,91.5
2016-04-05T00:44:51.132Z,91.46
2016-04-05T00:45:51.073Z,92.03
2016-04-05T00:46:51.029Z,92.13
2016-04-05T00:47:50.968Z,91.36
2016-04-05T00:48:50.925Z,91.31
2016-04-05T00:49:50.864Z,90.64
2016-04-05T00:50:50.820Z,91.22
2016-04-05T00:51:50.776Z,91.03
2016-04-05T00:52:50.716Z,91.65
2016-04-05T00:53:50.673Z,91.55
2016-04-05T00:54:50.612Z,91.74
2016-04-05T00:55:50.569Z,92.32
2016-04-05T00:56:50.525Z,92.6
2016-04-05T00:57:50.480Z,92.41
2016-04-05T00:58:50.452Z,92.5
2016-04-05T00:59:50.360Z,91.74
2016-04-05T01:00:50.300Z,90.79
2016-04-05T01:01:50.256Z,91.74
2016-04-05T01:02:50.197Z,92.22
2016-04-05T01:03:50.153Z,91.94
2016-04-05T01:04:50.109Z,92.03
2016-04-05T01:05:50.064Z,92.22
2016-04-05T01:06:50.005Z,92.79
2016-04-05T01:07:49.960Z,92.46
2016-04-05T01:08:49.916Z,92.41
2016-04-05T01:09:49.841Z,91.46
2016-04-05T01:10:49.796Z,91.74
2016-04-05T01:11:49.752Z,91.74
2016-04-05T01:12:49.692Z,92.13
2016-04-05T01:13:49.663Z,92.79
2016-04-05T01:14:49.635Z,93.08
2016-04-05T01:15:49.543Z,92.98
2016-04-05T01:16:49.515Z,93.55
2016-04-05T01:17:49.440Z,93.41
2016-04-05T01:18:49.396Z,92.84
2016-04-05T01:19:49.337Z,92.32
2016-04-05T01:20:49.292Z,92.41
2016-04-05T01:21:49.232Z,92.22
2016-04-05T01:22:49.187Z,92.13
2016-04-05T01:23:49.144Z,92.32
2016-04-05T01:24:49.084Z,92.69
2016-04-05T01:25:49.039Z,93.17
2016-04-05T01:26:48.980Z,93.03
2016-04-05T01:27:48.936Z,92.79
2016-04-05T01:28:48.875Z,92.5
2016-04-05T01:29:48.847Z,92.32
2016-04-05T01:30:48.772Z,92.13
2016-04-05T01:31:48.728Z,92.03
2016-04-05T01:32:48.684Z,91.84
2016-04-05T01:33:48.624Z,91.65
2016-04-05T01:34:48.580Z,92.03
2016-04-05T01:35:48.551Z,93.27
2016-04-05T01:36:48.475Z,93.93
2016-04-05T01:37:48.416Z,94.27
2016-04-05T01:38:48.387Z,93.13
2016-04-05T01:39:48.328Z,93.79
2016-04-05T01:40:48.283Z,94.08
2016-04-05T01:41:48.239Z,93.79
2016-04-05T01:42:48.164Z,93.6
2016-04-05T01:43:48.119Z,93.6
2016-04-05T01:44:48.091Z,93.22
2016-04-05T01:45:48.004Z,93.27
2016-04-05T01:46:47.967Z,92.41
2016-04-05T01:47:47.922Z,92.79
2016-04-05T01:48:47.917Z,92.5
2016-04-05T01:49:48.982Z,92.13
2016-04-05T01:50:47.765Z,92.41
2016-04-05T01:51:47.706Z,92.69
2016-04-05T01:52:47.662Z,93.17
2016-04-05T01:53:47.617Z,93.37
2016-04-05T01:54:47.559Z,93.79
2016-04-05T01:55:47.514Z,94.46
2016-04-05T01:56:47.501Z,94.46
2016-04-05T01:57:47.394Z,94.93
2016-04-05T01:58:47.350Z,95.41
2016-04-05T01:59:47.275Z,95.32
2016-04-05T02:00:47.262Z,95.6
2016-04-05T02:01:47.202Z,95.27
2016-04-05T02:02:47.158Z,94.56
2016-04-05T02:03:47.114Z,94.37
2016-04-05T02:04:47.054Z,94.37
2016-04-05T02:05:46.995Z,94.74
2016-04-05T02:06:46.950Z,94.65
2016-04-05T02:07:46.895Z,94.65
2016-04-05T02:08:46.836Z,94.84
2016-04-05T02:09:46.807Z,95.22
2016-04-05T02:10:46.747Z,96.36
2016-04-05T02:11:46.687Z,96.27
2016-04-05T02:12:46.643Z,96.79
2016-04-05T02:13:46.583Z,96.6
2016-04-05T02:14:46.773Z,96.46
2016-04-05T02:15:46.494Z,95.98
2016-04-05T02:16:46.434Z,95.41
2016-04-05T02:17:46.374Z,95.22
2016-04-05T02:18:46.315Z,95.12
2016-04-05T02:19:46.271Z,95.03
2016-04-05T02:20:46.243Z,94.08
2016-04-05T02:21:46.167Z,94.27
2016-04-05T02:22:46.123Z,94.93
2016-04-05T02:23:46.079Z,95.46
2016-04-05T02:24:46.018Z,95.08
2016-04-05T02:25:45.959Z,94.56
2016-04-05T02:26:45.914Z,94.37
2016-04-05T02:27:45.855Z,94.46
2016-04-05T02:28:45.826Z,94.84
2016-04-05T02:29:45.641Z,95.46
2016-04-05T02:30:45.707Z,95.65
2016-04-05T02:31:45.662Z,95.94
2016-04-05T02:32:45.603Z,96.41
2016-04-05T02:33:45.542Z,96.7
2016-04-05T02:34:45.499Z,95.75
2016-04-05T02:35:45.455Z,95.36
2016-04-05T02:36:45.395Z,94.79
2016-04-05T02:37:45.350Z,94.98
2016-04-05T02:38:45.135Z,95.17
2016-04-05T02:39:45.246Z,95.08
2016-04-05T02:40:45.186Z,95.17
2016-04-05T02:41:45.143Z,95.65
2016-04-05T02:42:45.098Z,95.17
2016-04-05T02:43:45.039Z,95.46
2016-04-05T02:44:45.165Z,96.12
2016-04-05T02:45:44.931Z,96.36
2016-04-05T02:46:44.874Z,95.98
2016-04-05T02:47:44.801Z,96.08
2016-04-05T02:48:44.745Z,95.65
2016-04-05T02:49:44.672Z,95.46
2016-04-05T02:50:44.600Z,95.56
2016-04-05T02:51:44.552Z,95.08
2016-04-05T02:52:44.503Z,94.7
2016-04-05T02:53:44.454Z,94.6
2016-04-05T02:54:44.389Z,93.55
2016-04-05T02:55:44.326Z,93.74
2016-04-05T02:56:44.280Z,94.6
2016-04-05T02:57:44.219Z,95.08
2016-04-05T02:58:44.157Z,95.17
2016-04-05T02:59:44.127Z,95.56
2016-04-05T03:00:44.065Z,95.27
2016-04-05T03:01:44.005Z,95.65
2016-04-05T03:02:43.944Z,95.08
2016-04-05T03:03:43.899Z,95.17
2016-04-05T03:04:43.855Z,96.17
2016-04-05T03:05:43.810Z,96.55
2016-04-05T03:06:43.735Z,96.74
2016-04-05T03:07:43.690Z,97.03
2016-04-05T03:08:43.646Z,97.03
2016-04-05T03:09:43.586Z,96.17
2016-04-05T03:10:43.527Z,95.6
2016-04-05T03:11:43.514Z,95.51
2016-04-05T03:12:42.704Z,95.12
2016-04-05T03:13:43.394Z,96.08
2016-04-05T03:14:43.319Z,95.98
2016-04-05T03:15:43.290Z,95.89
2016-04-05T03:16:43.246Z,95.98
2016-04-05T03:17:43.171Z,96.08
2016-04-05T03:18:43.126Z,96.17
2016-04-05T03:19:43.066Z,95.98
2016-04-05T03:20:43.022Z,95.89
2016-04-05T03:21:42.993Z,96.46
2016-04-05T03:22:42.903Z,96.12
2016-04-05T03:23:42.859Z,96.69
2016-04-05T03:24:42.814Z,96.94
2016-04-05T03:25:42.754Z,96.46
2016-04-05T03:26:42.695Z,96.17
2016-04-05T03:27:42.651Z,95.51
2016-04-05T03:28:42.590Z,95.6
2016-04-05T03:29:42.548Z,95.7
2016-04-05T03:30:42.503Z,95.12
2016-04-05T03:31:42.428Z,94.93
2016-04-05T03:32:42.399Z,94.65
2016-04-05T03:33:42.339Z,94.98
2016-04-05T03:34:42.295Z,95.6
2016-04-05T03:35:42.233Z,95.98
2016-04-05T03:36:42.172Z,96.08
2016-04-05T03:37:42.113Z,96.08
2016-04-05T03:38:42.068Z,96.08
2016-04-05T03:39:42.009Z,96.46
2016-04-05T03:40:41.964Z,96.69
2016-04-05T03:41:41.905Z,96.79
2016-04-05T03:42:41.860Z,96.69
2016-04-05T03:43:41.816Z,97.36
2016-04-05T03:44:41.757Z,97.74
2016-04-05T03:45:41.697Z,96.89
2016-04-05T03:46:41.652Z,96.36
2016-04-05T03:47:41.608Z,96.17
2016-04-05T03:48:41.549Z,95.89
2016-04-05T03:49:41.489Z,95.41
2016-04-05T03:50:41.460Z,95.7
2016-04-05T03:51:41.385Z,95.32
2016-04-05T03:52:41.324Z,95.03
2016-04-05T03:53:41.281Z,95.22
2016-04-05T03:54:41.237Z,95.41
2016-04-05T03:55:41.177Z,95.6
2016-04-05T03:56:41.149Z,95.89
2016-04-05T03:57:41.057Z,96.08
2016-04-05T03:58:41.013Z,95.89
2016-04-05T03:59:40.968Z,96.08
2016-04-05T04:00:40.909Z,96.84
2016-04-05T04:01:40.864Z,96.74
2016-04-05T04:02:40.820Z,96.74
2016-04-05T04:03:40.761Z,97.17
2016-04-05T04:04:40.700Z,97.08
2016-04-05T04:05:40.656Z,96.26
2016-04-05T04:06:40.597Z,95.12
2016-04-05T04:07:40.553Z,95.6
2016-04-05T04:08:40.493Z,96.5
2016-04-05T04:09:40.449Z,96.89
2016-04-05T04:10:40.389Z,96.98
2016-04-05T04:11:40.330Z,97.27
2016-04-05T04:12:40.301Z,97.64
2016-04-05T04:13:40.241Z,97.17
2016-04-05T04:14:40.181Z,96.69
2016-04-05T04:15:40.136Z,97.27
2016-04-05T04:16:40.093Z,97.17
2016-04-05T04:17:40.033Z,96.98
2016-04-05T04:18:39.973Z,96.08
2016-04-05T04:19:39.913Z,96.6
2016-04-05T04:20:39.854Z,96.5
2016-04-05T04:21:39.809Z,96.98
2016-04-05T04:22:39.749Z,97.17
2016-04-05T04:23:39.704Z,97.55
2016-04-05T04:24:39.645Z,97.27
2016-04-05T04:25:39.617Z,97.64
2016-04-05T04:26:39.541Z,98.31
2016-04-05T04:27:39.482Z,97.64
2016-04-05T04:28:39.437Z,97.74
2016-04-05T04:29:39.393Z,97.55
2016-04-05T04:30:39.333Z,97.08
2016-04-05T04:31:39.289Z,97.36
2016-04-05T04:32:39.229Z,97.83
2016-04-05T04:33:39.201Z,98.5
2016-04-05T04:34:39.126Z,98.22
2016-04-05T04:35:39.081Z,98.12
2016-04-05T04:36:39.036Z,97.64
2016-04-05T04:37:38.962Z,97.27
2016-04-05T04:38:38.917Z,97.55
2016-04-05T04:39:38.858Z,96.69
2016-04-05T04:40:38.814Z,96.03
2016-04-05T04:41:38.816Z,96.46
2016-04-05T04:42:38.709Z,95.98
2016-04-05T04:43:38.650Z,95.22
2016-04-05T04:44:38.589Z,95.32
2016-04-05T04:45:38.561Z,95.7
2016-04-05T04:46:38.502Z,96.41
2016-04-05T04:47:38.458Z,97.36
2016-04-05T04:48:38.397Z,98.22
2016-04-05T04:49:38.338Z,98.6
2016-04-05T04:50:38.277Z,97.64
2016-04-05T04:51:38.233Z,96.98
2016-04-05T04:52:38.174Z,96.6
2016-04-05T04:53:38.129Z,95.7
2016-04-05T04:54:38.071Z,96.12
2016-04-05T04:55:38.026Z,98.03
2016-04-05T04:56:37.965Z,97.93
2016-04-05T04:57:37.938Z,98.03
2016-04-05T04:58:37.706Z,98.31
2016-04-05T04:59:37.834Z,97.64
2016-04-05T05:00:37.757Z,97.45
2016-04-05T05:01:37.714Z,96.79
2016-04-05T05:02:37.654Z,96.6
2016-04-05T05:03:37.609Z,96.89
2016-04-05T05:04:37.565Z,97.36
2016-04-05T05:05:37.506Z,98.07
2016-04-05T05:06:37.445Z,98.74
2016-04-05T05:07:37.386Z,98.55
2016-04-05T05:08:36.592Z,98.69
2016-04-05T05:09:37.298Z,98.12
2016-04-05T05:10:37.222Z,97.74
2016-04-05T05:11:37.194Z,96.98
2016-04-05T05:12:37.119Z,97.83
2016-04-05T05:13:37.074Z,98.03
2016-04-05T05:14:37.014Z,97.93
2016-04-05T05:15:36.970Z,98.5
2016-04-05T05:16:36.911Z,98.31
2016-04-05T05:17:36.866Z,98.41
2016-04-05T05:18:36.821Z,98.03
2016-04-05T05:19:36.763Z,96.98
2016-04-05T05:20:36.702Z,96.41
2016-04-05T05:21:36.673Z,96.22
2016-04-05T05:22:36.802Z,96.03
2016-04-05T05:23:36.538Z,95.65
2016-04-05T05:24:36.494Z,95.65
2016-04-05T05:25:36.435Z,95.46
2016-04-05T05:26:36.406Z,95.6
2016-04-05T05:27:36.330Z,96.55
2016-04-05T05:28:36.287Z,96.79
2016-04-05T05:29:36.227Z,96.26
2016-04-05T05:30:36.182Z,95.89
2016-04-05T05:31:36.138Z,95.6
2016-04-05T05:32:36.062Z,95.7
2016-04-05T05:33:36.018Z,95.22
2016-04-05T05:34:35.974Z,95.32
2016-04-05T05:35:35.914Z,95.41
2016-04-05T05:36:35.870Z,95.41
2016-04-05T05:37:35.811Z,95.12
2016-04-05T05:38:35.750Z,94.37
2016-04-05T05:39:35.707Z,94.46
2016-04-05T05:40:35.647Z,94.37
2016-04-05T05:41:35.602Z,94.74
2016-04-05T05:42:35.559Z,94.18
2016-04-05T05:43:35.498Z,94.7
2016-04-05T05:44:35.439Z,95.03
2016-04-05T05:45:35.395Z,94.93
2016-04-05T05:46:35.350Z,94.6
2016-04-05T05:47:35.291Z,94.51
2016-04-05T05:48:35.246Z,94.32
2016-04-05T05:49:35.171Z,94.98
2016-04-05T05:50:35.126Z,95.27
2016-04-05T05:51:35.082Z,95.22
2016-04-05T05:52:35.038Z,94.98
2016-04-05T05:53:34.979Z,94.89
2016-04-05T05:54:34.919Z,94.42
2016-04-05T05:55:34.874Z,93.74
2016-04-05T05:56:34.815Z,94.03
2016-04-05T05:57:34.771Z,94.22
2016-04-05T05:58:34.726Z,94.32
2016-04-05T05:59:34.666Z,94.22
2016-04-05T06:00:34.607Z,94.03
2016-04-05T06:01:34.547Z,93.84
2016-04-05T06:02:34.503Z,93.94
2016-04-05T06:03:34.458Z,94.6
2016-04-05T06:04:34.415Z,94.51
2016-04-05T06:05:34.339Z,94.79
2016-04-05T06:06:34.294Z,95.08
2016-04-05T06:07:34.267Z,94.98
2016-04-05T06:08:34.190Z,94.42
2016-04-05T06:09:34.147Z,94.7
2016-04-05T06:10:34.087Z,95.17
2016-04-05T06:11:34.058Z,95.75
2016-04-05T06:12:33.983Z,95.46
2016-04-05T06:13:33.939Z,94.89
2016-04-05T06:14:33.878Z,94.74
2016-04-05T06:15:33.834Z,94.65
2016-04-05T06:16:33.791Z,94.08
2016-04-05T06:17:33.714Z,93.51
2016-04-05T06:18:33.671Z,94.27
2016-04-05T06:19:33.611Z,94.46
2016-04-05T06:20:33.566Z,94.56
2016-04-05T06:21:33.538Z,94.56
2016-04-05T06:22:33.478Z,94.27
2016-04-05T06:23:33.435Z,93.22
2016-04-05T06:24:33.219Z,93.13
2016-04-05T06:25:33.502Z,92.6
2016-04-05T06:26:33.270Z,93.17
2016-04-05T06:27:33.196Z,92.5
2016-04-05T06:28:33.151Z,93.65
2016-04-05T06:29:33.090Z,93.55
2016-04-05T06:30:33.063Z,92.89
2016-04-05T06:31:33.018Z,92.89
2016-04-05T06:32:32.959Z,92.41
2016-04-05T06:33:32.898Z,92.22
2016-04-05T06:34:32.854Z,93.08
2016-04-05T06:35:32.810Z,93.46
2016-04-05T06:36:32.750Z,93.27
2016-04-05T06:37:32.690Z,93.51
2016-04-05T06:38:32.646Z,93.41
2016-04-05T06:39:32.587Z,93.32
2016-04-05T06:40:32.542Z,93.79
2016-04-05T06:41:32.483Z,93.46
2016-04-05T06:42:32.454Z,93.22
2016-04-05T06:43:32.597Z,93.32
2016-04-05T06:44:32.334Z,93.12
2016-04-05T06:45:32.275Z,93.27
2016-04-05T06:46:32.231Z,92.65
2016-04-05T06:47:32.186Z,93.41
2016-04-05T06:48:32.126Z,93.7
2016-04-05T06:49:32.083Z,93.51
2016-04-05T06:50:32.022Z,93.41
2016-04-05T06:51:31.978Z,92.36
2016-04-05T06:52:31.919Z,92.17
2016-04-05T06:53:31.874Z,91.69
2016-04-05T06:54:31.846Z,91.69
2016-04-05T06:55:31.771Z,91.98
2016-04-05T06:56:31.726Z,92.36
2016-04-05T06:57:31.682Z,92.27
2016-04-05T06:58:31.622Z,92.08
2016-04-05T06:59:31.562Z,92.55
2016-04-05T07:00:31.518Z,92.08
2016-04-05T07:01:31.458Z,91.41
2016-04-05T07:02:31.414Z,91.6
2016-04-05T07:03:31.370Z,92.36
2016-04-05T07:04:31.310Z,91.88
2016-04-05T07:05:31.250Z,92.27
2016-04-05T07:06:31.221Z,91.88
2016-04-05T07:07:31.148Z,92.08
2016-04-05T07:08:31.119Z,92.08
2016-04-05T07:09:31.059Z,92.74
2016-04-05T07:10:31.000Z,91.79
2016-04-05T07:11:30.939Z,91.41
2016-04-05T07:12:30.911Z,90.98
2016-04-05T07:13:30.852Z,90.5
2016-04-05T07:14:30.808Z,90.5
2016-04-05T07:15:30.779Z,90.31
2016-04-05T07:16:30.703Z,90.41
2016-04-05T07:17:30.644Z,90.5
2016-04-05T07:18:30.600Z,89.83
2016-04-05T07:19:30.540Z,89.36
2016-04-05T07:20:30.496Z,89.74
2016-04-05T07:21:30.467Z,89.26
2016-04-05T07:22:30.391Z,89.17
2016-04-05T07:23:30.363Z,89.4
2016-04-05T07:24:30.304Z,89.4
2016-04-05T07:25:30.259Z,89.45
2016-04-05T07:26:30.215Z,88.78
2016-04-05T07:27:30.170Z,89.12
2016-04-05T07:28:30.126Z,88.92
2016-04-05T07:29:30.051Z,88.54
2016-04-05T07:30:29.975Z,88.07
2016-04-05T07:31:29.948Z,89.5
2016-04-05T07:32:29.903Z,88.73
2016-04-05T07:33:29.858Z,88.92
2016-04-05T07:34:29.798Z,88.35
2016-04-05T07:35:29.754Z,87.97
2016-04-05T07:36:29.711Z,87.97
2016-04-05T07:37:29.634Z,88.35
2016-04-05T07:38:29.592Z,87.87
2016-04-05T07:39:29.547Z,88.54
2016-04-05T07:40:29.502Z,87.78
2016-04-05T07:41:29.442Z,87.97
2016-04-05T07:42:29.383Z,88.2
2016-04-05T07:43:29.339Z,88.78
2016-04-05T07:44:29.294Z,88.11
2016-04-05T07:45:29.235Z,87.82
2016-04-05T07:46:29.191Z,88.2
2016-04-05T07:47:29.130Z,87.63
2016-04-05T07:48:29.086Z,87.54
2016-04-05T07:49:29.042Z,87.15
2016-04-05T07:50:28.999Z,87.39
2016-04-05T07:51:28.938Z,86.39
2016-04-05T07:52:28.894Z,87.01
2016-04-05T07:53:28.850Z,86.34
2016-04-05T07:54:28.790Z,86.43
2016-04-05T07:55:28.746Z,85.96
2016-04-05T07:56:28.702Z,85.86
2016-04-05T07:57:28.642Z,86
2016-04-05T07:58:28.613Z,85.29
2016-04-05T07:59:28.554Z,84.85
2016-04-05T08:00:28.493Z,84.76
2016-04-05T08:01:28.278Z,84.28
2016-04-05T08:02:28.389Z,84.38
2016-04-05T08:03:28.346Z,84.38
2016-04-05T08:04:28.301Z,84.19
2016-04-05T08:05:28.242Z,84.38
2016-04-05T08:06:28.198Z,84.56
2016-04-05T08:07:28.169Z,84.47
2016-04-05T08:08:28.125Z,84.19
2016-04-05T08:09:28.050Z,83.99
2016-04-05T08:10:28.005Z,83.75
2016-04-05T08:11:27.976Z,83.51
2016-04-05T08:12:27.900Z,84.47
2016-04-05T08:13:27.857Z,84.09
2016-04-05T08:14:27.813Z,84.09
2016-04-05T08:15:27.753Z,83.99
2016-04-05T08:16:27.708Z,83.84
2016-04-05T08:17:27.649Z,83.94
2016-04-05T08:18:27.605Z,83.56
2016-04-05T08:19:27.560Z,83.27
2016-04-05T08:20:27.501Z,83.08
2016-04-05T08:21:27.457Z,82.31
2016-04-05T08:22:27.427Z,82.51
2016-04-05T08:23:27.368Z,82.35
2016-04-05T08:24:27.307Z,82.17
2016-04-05T08:25:27.264Z,81.97
2016-04-05T08:26:27.204Z,82.26
2016-04-05T08:27:27.176Z,81.68
2016-04-05T08:28:27.116Z,81.3
2016-04-05T08:29:27.071Z,81.4
2016-04-05T08:30:27.027Z,81.4
2016-04-05T08:31:26.968Z,81.88
2016-04-05T08:32:26.923Z,80.96
2016-04-05T08:33:26.879Z,80.48
2016-04-05T08:34:26.820Z,80.87
2016-04-05T08:35:26.791Z,80.52
2016-04-05T08:36:26.731Z,80.14
2016-04-05T08:37:26.687Z,79.75
2016-04-05T08:38:26.642Z,79.57
2016-04-05T08:39:26.614Z,79.37
2016-04-05T08:40:26.539Z,79.08
2016-04-05T08:41:26.510Z,78.27
2016-04-05T08:42:26.435Z,79.03
2016-04-05T08:43:26.391Z,77.88
2016-04-05T08:44:26.346Z,77.31
2016-04-05T08:45:26.302Z,77.88
2016-04-05T08:46:26.242Z,78.4
2016-04-05T08:47:26.214Z,77.82
2016-04-05T08:48:26.154Z,78.11
2016-04-05T08:49:26.111Z,77.44
2016-04-05T08:50:26.050Z,76.9
2016-04-05T08:51:26.021Z,76.9
2016-04-05T08:52:25.961Z,75.95
2016-04-05T08:53:25.917Z,75.85
2016-04-05T08:54:25.874Z,75.46
2016-04-05T08:55:25.813Z,75.6
2016-04-05T08:56:25.785Z,74.93
2016-04-05T08:57:25.725Z,74.83
2016-04-05T08:58:25.665Z,74.64
2016-04-05T08:59:25.621Z,73.87
2016-04-05T09:00:25.577Z,73.33
2016-04-05T09:01:25.532Z,72.95
2016-04-05T09:02:25.488Z,72.95
2016-04-05T09:03:25.445Z,72.89
2016-04-05T09:04:25.385Z,71.93
2016-04-05T09:05:25.356Z,71.67
2016-04-05T09:06:25.312Z,71.73
2016-04-05T09:07:25.267Z,71
2016-04-05T09:08:25.208Z,70.87
2016-04-05T09:09:25.148Z,70.49
2016-04-05T09:10:25.124Z,69.75
2016-04-05T09:11:25.065Z,70.78
2016-04-05T09:12:25.036Z,70.87
2016-04-05T09:13:24.976Z,70.39
2016-04-05T09:14:24.932Z,69.46
2016-04-05T09:15:24.872Z,69.37
2016-04-05T09:16:24.844Z,69.24
2016-04-05T09:17:24.799Z,69.81
2016-04-05T09:18:24.739Z,69.62
2016-04-05T09:19:24.696Z,69.46
2016-04-05T09:20:24.636Z,69.91
2016-04-05T09:21:24.607Z,69.91
2016-04-05T09:22:24.563Z,69.37
2016-04-05T09:23:24.503Z,69.72
2016-04-05T09:24:24.474Z,69.43
2016-04-05T09:25:24.415Z,69.14
2016-04-05T09:26:24.385Z,69.14
2016-04-05T09:27:24.327Z,69.34
2016-04-05T09:28:24.282Z,69.27
2016-04-05T09:29:24.223Z,69.46
2016-04-05T09:30:24.178Z,68.98
2016-04-05T09:31:24.134Z,69.18
2016-04-05T09:32:24.090Z,69.85
2016-04-05T09:33:24.029Z,70.04
2016-04-05T09:34:23.986Z,71
2016-04-05T09:35:23.942Z,70.33
2016-04-05T09:36:23.898Z,69.75
2016-04-05T09:37:23.854Z,69.37
2016-04-05T09:38:23.809Z,68.98
2016-04-05T09:39:23.750Z,69.46
2016-04-05T09:40:23.720Z,69.18
2016-04-05T09:41:23.676Z,69.31
2016-04-05T09:42:23.616Z,69.08
2016-04-05T09:43:23.573Z,68.41
2016-04-05T09:44:23.528Z,67.64
2016-04-05T09:45:23.483Z,67.25
2016-04-05T09:46:23.455Z,67.19
2016-04-05T09:47:23.396Z,66.52
2016-04-05T09:48:23.351Z,68.54
2016-04-05T09:49:23.291Z,69.21
2016-04-05T09:50:23.248Z,68.92
2016-04-05T09:51:23.203Z,69.02
2016-04-05T09:52:23.159Z,69.02
2016-04-05T09:53:23.131Z,68.92
2016-04-05T09:54:23.071Z,69.31
2016-04-05T09:55:23.043Z,69.02
2016-04-05T09:56:22.998Z,68.76
2016-04-05T09:57:22.923Z,68.19
2016-04-05T09:58:22.879Z,68.67
2016-04-05T09:59:22.818Z,68.29
2016-04-05T10:00:22.774Z,68.03
2016-04-05T10:01:22.745Z,67.65
2016-04-05T10:02:22.702Z,67.93
2016-04-05T10:03:22.642Z,67.45
2016-04-05T10:04:22.613Z,67.39
2016-04-05T10:05:22.569Z,67.07
2016-04-05T10:06:22.509Z,66.33
2016-04-05T10:07:22.464Z,67.39
2016-04-05T10:08:22.436Z,66.81
2016-04-05T10:09:22.361Z,66.52
2016-04-05T10:10:22.332Z,65.85
2016-04-05T10:11:22.303Z,66.14
2016-04-05T10:12:22.259Z,66.85
2016-04-05T10:13:22.184Z,66.46
2016-04-05T10:14:22.140Z,65.5
2016-04-05T10:15:22.097Z,65.2
2016-04-05T10:16:22.067Z,64.82
2016-04-05T10:17:22.023Z,65.11
2016-04-05T10:18:21.964Z,65.88
2016-04-05T10:19:21.919Z,66.75
2016-04-05T10:20:21.875Z,66.46
2016-04-05T10:21:21.815Z,67.42
2016-04-05T10:22:21.771Z,66.71
2016-04-05T10:23:21.727Z,66.14
2016-04-05T10:24:21.682Z,65.94
2016-04-05T10:25:21.655Z,66.04
2016-04-05T10:26:21.594Z,65.66
2016-04-05T10:27:21.550Z,65.4
2016-04-05T10:28:21.507Z,65.4
2016-04-05T10:29:21.462Z,65.59
2016-04-05T10:30:21.418Z,65.11
2016-04-05T10:31:21.373Z,65.01
2016-04-05T10:32:21.345Z,65.4
2016-04-05T10:33:21.301Z,64.53
2016-04-05T10:34:21.241Z,63.98
2016-04-05T10:35:21.228Z,63.5
2016-04-05T10:36:21.153Z,63.6
2016-04-05T10:37:21.108Z,63.89
2016-04-05T10:38:21.048Z,63.31
2016-04-05T10:39:21.004Z,62.86
2016-04-05T10:40:20.991Z,62.38
2016-04-05T10:41:20.916Z,63.34
2016-04-05T10:42:20.872Z,63.44
2016-04-05T10:43:20.842Z,62.76
2016-04-05T10:44:20.784Z,62.66
2016-04-05T10:45:20.739Z,62.76
2016-04-05T10:46:20.711Z,61.93
2016-04-05T10:47:20.666Z,61.44
2016-04-05T10:48:20.606Z,59.52
2016-04-05T10:49:20.563Z,59.61
2016-04-05T10:50:20.518Z,59.61
2016-04-05T10:51:20.474Z,58.26
2016-04-05T10:52:20.430Z,57.81
2016-04-05T10:53:20.385Z,57.42
2016-04-05T10:54:20.341Z,57.14
2016-04-05T10:55:20.296Z,56.46
2016-04-05T10:56:20.253Z,54.72
2016-04-05T10:57:20.193Z,54.55
2016-04-05T10:58:20.165Z,55.52
2016-04-05T10:59:20.121Z,55.62
2016-04-05T11:00:20.061Z,55.78
2016-04-05T11:01:19.923Z,56.36
2016-04-05T11:02:19.973Z,57.14
2016-04-05T11:03:19.928Z,56.26
2016-04-05T11:04:19.885Z,54.53
2016-04-05T11:05:19.840Z,53.27
2016-04-05T11:06:19.796Z,52.91
2016-04-05T11:07:19.768Z,52.04
2016-04-05T11:08:19.714Z,51.95
2016-04-05T11:09:19.693Z,51.17
2016-04-05T11:10:19.617Z,50.69
2016-04-05T11:11:19.573Z,51.27
2016-04-05T11:12:19.528Z,51.75
2016-04-05T11:13:19.484Z,51.29
2016-04-05T11:14:19.456Z,52.07
2016-04-05T11:15:19.396Z,52.91
2016-04-05T11:16:19.446Z,52.26
2016-04-05T11:17:19.339Z,51.68
2016-04-05T11:18:19.264Z,52.55
2016-04-05T11:19:19.235Z,52.75
2016-04-05T11:20:19.175Z,52.72
2016-04-05T11:21:19.131Z,52.72
2016-04-05T11:22:19.087Z,52.04
2016-04-05T11:23:19.043Z,51.85
2016-04-05T11:24:18.998Z,52.17
2016-04-05T11:25:18.954Z,52.43
2016-04-05T11:26:18.910Z,52.04
2016-04-05T11:27:18.741Z,51.01
2016-04-05T11:28:18.822Z,49.95
2016-04-05T11:29:18.778Z,50.33
2016-04-05T11:30:18.733Z,50.71
2016-04-05T11:31:18.736Z,50.55
2016-04-05T11:32:18.645Z,50.45
2016-04-05T11:33:18.616Z,49.65
2016-04-05T11:34:18.604Z,50.35
2016-04-05T11:35:18.513Z,49.68
2016-04-05T11:36:18.468Z,49.51
2016-04-05T11:37:18.424Z,49.32
2016-04-05T11:38:18.379Z,49.41
2016-04-05T11:39:18.335Z,48.16
2016-04-05T11:40:18.307Z,48.35
2016-04-05T11:41:18.262Z,48.35
2016-04-05T11:42:18.218Z,48.16
2016-04-05T11:43:18.173Z,48.18
2016-04-05T11:44:18.130Z,47.99
2016-04-05T11:45:18.070Z,47.77
2016-04-05T11:46:18.088Z,48.25
2016-04-05T11:47:17.998Z,48.35
2016-04-05T11:48:17.937Z,48.74
2016-04-05T11:49:17.925Z,48.93
2016-04-05T11:50:17.864Z,49.8
2016-04-05T11:51:17.818Z,50.38
2016-04-05T11:52:17.767Z,49.97
2016-04-05T11:53:17.713Z,49.99
2016-04-05T11:54:17.660Z,50.57
2016-04-05T11:55:17.623Z,51.23
2016-04-05T11:56:17.539Z,51.93
2016-04-05T11:57:17.524Z,52.7
2016-04-05T11:58:17.460Z,52.77
2016-04-05T11:59:17.412Z,52.12
2016-04-05T12:00:17.367Z,51.54
2016-04-05T12:01:17.256Z,51.25
2016-04-05T12:02:17.305Z,51.08
2016-04-05T12:03:17.245Z,50.98
2016-04-05T12:04:17.183Z,50.98
2016-04-05T12:05:17.153Z,50.6
2016-04-05T12:06:17.109Z,49.82
2016-04-05T12:07:17.064Z,50.4
2016-04-05T12:08:17.004Z,50.21
2016-04-05T12:09:16.974Z,50.52
2016-04-05T12:10:16.929Z,50.14
2016-04-05T12:11:16.870Z,49.75
2016-04-05T12:12:16.826Z,49.95
2016-04-05T12:13:16.812Z,50.5
2016-04-05T12:14:16.753Z,50.4
2016-04-05T12:15:16.709Z,50.31
2016-04-05T12:16:16.695Z,50.31
2016-04-05T12:17:16.636Z,49.82
2016-04-05T12:18:16.592Z,49.82
2016-04-05T12:19:16.533Z,50.96
2016-04-05T12:20:16.488Z,50.79
2016-04-05T12:21:16.444Z,50.7
2016-04-05T12:22:16.399Z,50.48
2016-04-05T12:23:16.386Z,50.86
2016-04-05T12:24:16.311Z,50.76
2016-04-05T12:25:16.267Z,50.6
2016-04-05T12:26:16.222Z,50.86
2016-04-05T12:27:16.194Z,51.35
2016-04-05T12:28:16.149Z,51.25
2016-04-05T12:29:16.106Z,51.44
2016-04-05T12:30:16.062Z,51.83
2016-04-05T12:31:16.002Z,51.15
2016-04-05T12:32:15.973Z,50.76
2016-04-05T12:33:15.929Z,50.67
2016-04-05T12:34:15.915Z,50.86
2016-04-05T12:35:15.840Z,50.86
2016-04-05T12:36:15.796Z,50.96
2016-04-05T12:37:15.752Z,52.12
2016-04-05T12:38:15.709Z,52.77
2016-04-05T12:39:15.665Z,52.67
2016-04-05T12:40:15.620Z,52.65
2016-04-05T12:41:15.591Z,52.87
2016-04-05T12:42:15.547Z,53.25
2016-04-05T12:43:15.503Z,53.71
2016-04-05T12:44:15.459Z,53.61
2016-04-05T12:45:15.415Z,53.06
2016-04-05T12:46:15.386Z,52.19
2016-04-05T12:47:15.310Z,51.61
2016-04-05T12:48:15.267Z,51.23
2016-04-05T12:49:15.239Z,51.32
2016-04-05T12:50:15.194Z,51.25
2016-04-05T12:51:15.150Z,52.48
2016-04-05T12:52:15.137Z,53.13
2016-04-05T12:53:15.077Z,52.36
2016-04-05T12:54:15.033Z,51.81
2016-04-05T12:55:14.988Z,51.13